Terminal Aerodrome Forecast
Issued by NWS

Home | Current Version | Previous Version | Text Only | Print | Product List | Glossary On
Versions: 1 2 3 4 5 6 7 8 9 10 11 12 13 14 15 16 17 18 19 20 21 22 23 24 25 26
000
FTUS45 KGJT 202335
TAFRIL
TAF
KRIL 202335Z 2100/2124 21015G23KT P6SM VCSH OVC110
     FM210200 28016G27KT P6SM VCSH BKN090
     FM210500 30021G34KT P6SM VCSH BKN030 OVC050
     FM210700 30015G25KT P6SM VCSH SCT050 OVC060
     FM211100 30009KT P6SM FEW050 SCT150=

USA.gov is the U.S. government's official web portal to all federal, state and local government web resources and services.